EST,Max TemperatureF,Mean TemperatureF,Min TemperatureF,Max Dew PointF,MeanDew PointF,Min DewpointF,Max Humidity, Mean Humidity, Min Humidity, Max Sea Level PressureIn, Mean Sea Level PressureIn, Min Sea Level PressureIn, Max VisibilityMiles, Mean VisibilityMiles, Min VisibilityMiles, Max Wind SpeedMPH, Mean Wind SpeedMPH, Max Gust SpeedMPH,PrecipitationIn, CloudCover, Events, WindDirDegrees
2013-2-1,30,24,16,13,3,-1,50,40,29,30.04,29.75,29.46,10,10,10,12,8,26,0.00,2,,279
2013-2-2,25,16,7,13,5,-3,80,54,35,30.21,30.12,30.05,10,10,10,7,1,,0.00,3,,183
2013-2-3,28,24,21,18,14,11,86,65,49,30.06,29.90,29.70,10,9,3,6,2,,0.00,8,Snow,27
2013-2-4,28,22,16,11,3,-8,68,45,30,29.88,29.71,29.65,10,10,10,14,4,30,0.00,2,,282
2013-2-5,24,14,3,6,-2,-9,73,49,23,30.04,29.99,29.89,10,10,10,5,1,,0.00,0,,205
2013-2-6,36,26,16,19,9,-9,68,53,29,30.29,30.02,29.93,10,10,10,10,2,17,0.00,5,,265
2013-2-7,19,14,9,-7,-13,-20,44,31,17,30.60,30.50,30.31,10,10,10,9,3,17,0.00,1,,5
2013-2-8,18,13,8,13,6,-8,84,74,41,30.59,30.30,29.88,10,2,0,10,6,29,0.00,8,Fog-Snow,39
2013-2-9,19,14,10,10,7,5,85,74,57,30.10,29.86,29.68,10,2,0,16,10,36,0.00,6,Fog-Snow,359
2013-2-10,36,22,5,10,1,-4,84,51,20,30.36,30.29,30.12,10,10,10,7,3,,0.22,0,,300
2013-2-11,41,21,1,39,27,-3,100,88,64,30.35,29.87,29.57,10,4,0,6,0,,0.42,7,Fog-Rain-Snow,173
2013-2-12,45,38,30,31,29,25,100,79,51,29.76,29.60,29.53,10,8,2,9,2,16,0.02,7,Rain-Snow,245
2013-2-13,44,36,27,26,23,19,85,63,37,29.81,29.77,29.74,10,10,10,7,2,,0.00,5,,265
2013-2-14,41,32,21,21,18,13,82,57,33,30.01,29.88,29.72,10,10,10,8,1,,0.00,3,,355
2013-2-15,44,32,19,34,25,15,93,79,60,30.01,29.96,29.92,10,8,3,12,2,20,0.00,4,,207
2013-2-16,36,32,27,30,28,19,92,85,72,29.94,29.89,29.78,10,4,1,8,2,,0.01,8,Snow,10
2013-2-17,27,23,19,18,12,2,86,68,46,29.72,29.31,29.16,10,3,0,16,9,34,0.01,8,Fog-Snow,322
2013-2-18,30,22,14,3,-1,-5,47,37,31,30.04,29.76,29.47,10,10,10,18,10,36,0.00,1,,290
2013-2-19,44,28,14,41,15,-5,93,57,25,30.11,29.96,29.60,10,9,4,12,2,25,0.45,4,Rain,145
2013-2-20,44,36,28,43,26,13,93,69,48,29.64,29.52,29.42,10,9,4,10,7,22,0.22,7,Rain,256
2013-2-21,33,27,21,22,13,6,69,56,43,30.14,29.83,29.66,10,10,7,12,6,17,0.00,4,Snow,318
2013-2-22,39,32,25,21,18,15,78,59,38,30.39,30.34,30.21,10,10,10,8,3,,0.00,0,,63
2013-2-23,37,30,24,32,28,19,93,83,68,30.37,30.18,30.04,10,7,1,9,3,,0.03,7,Snow,113
2013-2-24,32,30,28,30,28,25,93,90,85,30.02,29.88,29.79,6,1,0,7,4,,0.00,8,Fog-Snow,44
2013-2-25,39,32,24,29,24,21,89,77,50,30.25,30.08,29.91,10,9,2,7,1,,0.78,5,Snow,320
2013-2-26,41,32,23,31,25,19,92,76,51,30.37,30.33,30.27,10,10,7,6,1,,0.12,5,,190
2013-2-27,37,32,28,31,29,25,89,84,68,30.26,29.96,29.70,10,4,0,22,7,36,0.04,8,Fog-Rain-Snow,69
2013-2-28,42,38,32,40,37,29,97,91,79,29.67,29.58,29.54,10,4,1,18,8,29,0.56,8,Rain,112